Disclaimer

Please do not use the information listed here in-flight or in-navigation, as they are not provided to us by the airports but are provided by volunteers, so they might be outdated.

Search


Regions


Airport information page

No radio frequency information is available.

Airport informations:
Latitude: 29° 11' 49.43" S
Longitude: 051° 11' 15.13" W
Elevation: 2472 feet - 753 meters
Operating hours: From sunrise to sunset (SR-SS)
Operating agency: Civil government, landing fees and diplomatic clearance may be required
Timezone: UTC-3(-2DT)
Fuel: Jet A1, without icing nhibitor.

100/130 octane gasoline, leaded, MIL-L-5572F (GREEN)

Runway information:
15/33 - 6362 x 100 feet< - >1939 x 30 meters

Recent METARs:
SBCX 201900Z 15010KT CAVOK 24/12 Q1019
SBCX 201900Z 15010KT CAVOK 24/12 Q1019
SBCX 201900Z 15010KT CAVOK 24/12 Q1019

Airport on the map: